x

Central Aleutians 230nm Sw Dutch Harbor (46072) Wave Buoy

10:50 - Sat 26th Jul 2014 All times are UTC.

  • Sig Wave height 3.0ft
  • Peak Period 8s
  • Average Period 5s
  • Wind
    9mph, 13mph gusts
  • Sea Temp 54°f
  • Aire Temp 49°f
  • Sea Pressure 1025mb

More Historic Weather Station data

Upgrade to MSW Pro to gain access to the past 30 days of data for over 8000 Wavebouys and Weather Stations around the globe.

Join Pro

Comparision Forecast

View Surf forecast
   
sáb 07/26 10:50 3ft 8s 5s 9 13 mph 1025mb 54f 49f
9:50 2.5ft 6s 5s 11 13 mph 1025.1mb 54f 49f
8:50 2.5ft 8s 5s 11 13 mph 1025.5mb 54f 49f
7:50 2.5ft 7s 5s 11 13 mph 1025.3mb 54f 50f
6:50 2.5ft 8s 6s 9 11 mph 1025.1mb 54f 50f
5:50 2.5ft 8s 6s 9 11 mph 1025.2mb 54f 50f
4:50 2.5ft 8s 5s 9 11 mph 1025.1mb 54f 50f
3:50 2.5ft 8s 6s 9 11 mph 1025.3mb 54f 50f
2:50 2.5ft 13s 6s 9 11 mph 1025.5mb 54f 50f
1:50 2.5ft 8s 5s 9 11 mph 1025.8mb 54f 50f
12:50 3ft 6s 5s 9 11 mph 1026.1mb 53f 50f
vie 07/25 11:50 3.5ft 8s 5s 11 13 mph 1026.3mb 53f 50f
10:50 3.5ft 8s 5s 13 16 mph 1026.5mb 54f 50f
9:50 3.5ft 5s 5s 13 16 mph 1026.7mb 54f 50f
8:50 4ft 7s 5s 13 16 mph 1026.7mb 54f 50f
7:50 4ft 7s 5s 13 18 mph 1026.8mb 54f 50f
6:50 4ft 8s 5s 13 18 mph 1026.7mb 54f 49f
5:50 3.5ft 8s 5s 16 18 mph 1026.9mb 54f 50f
4:50 3.5ft 7s 5s 16 18 mph 1026.7mb 54f 50f
3:50 3ft 5s 5s 16 18 mph 1026.5mb 54f 50f
2:50 3.5ft 7s 5s 11 16 mph 1026.7mb 54f 51f
1:50 3.5ft 6s 5s 13 16 mph 1027.1mb 54f 51f
12:50 3.5ft 5s 4s 13 18 mph 1027.2mb 54f 50f
11:50 4.5ft 6s 5s 16 18 mph 1027.4mb 54f 51f
10:50 4.5ft 4s 4s 13 16 mph 1027.6mb 54f 51f
9:50 4ft 5s 5s 16 18 mph 1027.5mb 54f 51f
8:50 4ft 6s 5s 13 16 mph 1027.7mb 54f 51f
7:50 3.5ft 6s 5s 16 20 mph 1027.6mb 54f 52f
6:50 3.5ft 5s 5s 11 13 mph 1027.3mb 54f 52f
5:50 3ft 5s 5s 13 16 mph 1027.2mb 54f 52f
4:50 3ft 7s 5s 13 18 mph 1027.2mb 54f 52f
3:50 3ft 5s 5s 11 13 mph 1027.5mb 54f 51f
2:50 2.5ft 5s 5s 9 11 mph 1027.5mb 54f 51f
1:50 3.5ft 6s 5s 11 13 mph 1027.8mb 54f 51f
12:50 3.5ft 6s 5s 11 13 mph 1027.8mb 54f 51f
jue 07/24 11:50 3.5ft 5s 5s 11 13 mph 1027.8mb 54f 52f
10:50 3.5ft 5s 5s 11 13 mph 1027.8mb 54f 52f
9:50 3.5ft 5s 5s 13 16 mph 1027.9mb 53f 52f
8:50 4ft 5s 4s 16 18 mph 1028mb 53f 51f
7:50 4.5ft 5s 5s 18 20 mph 1027.8mb 53f 51f
6:50 4ft 5s 5s 18 20 mph 1028mb 53f 51f
5:50 3.5ft 5s 5s 16 20 mph 1027.7mb 53f 50f
4:50 3.5ft 5s 5s 18 20 mph 1027.4mb 54f 50f
3:50 3.5ft 5s 5s 11 16 mph 1027.4mb 54f 51f
2:50 3.5ft 6s 5s 11 13 mph 1027.1mb 54f 51f
1:50 3.5ft 5s 5s 9 11 mph 1027.2mb 54f 51f
12:50 3.5ft 5s 5s 11 13 mph 1027.1mb 54f 51f
11:50 3.5ft 5s 5s 13
mph
1027.4mb 54f 51f
10:50 3.5ft 6s 5s 13 16 mph 1027.7mb 54f 52f
9:50 3.5ft 6s 5s 13 16 mph 1027.8mb 54f 52f
8:50 3.5ft 5s 5s 11 13 mph 1027.9mb 54f 51f
7:50 4ft 5s 5s 11 16 mph 1027.7mb 54f 51f
6:50 3.5ft 5s 4s 11 13 mph 1027.4mb 53f 50f
5:50 4ft 6s 5s 13 18 mph 1027.2mb 53f 51f
4:50 4.5ft 5s 5s 16 18 mph 1027.2mb 53f 51f
3:50 4ft 6s 5s 16 20 mph 1027.2mb 54f 51f
2:50 4ft 6s 5s 16 18 mph 1027mb 54f 51f
1:50 4ft 5s 5s 13 16 mph 1027.1mb 54f 51f
12:50 4ft 6s 5s 16 18 mph 1026.9mb 54f 51f
mié 07/23 11:50 3.5ft 6s 5s 13 16 mph 1027.1mb 54f 51f
10:50 3.5ft 6s 5s 13 16 mph 1027mb 54f 51f
9:50 3.5ft 6s 5s 16 18 mph 1027.2mb 53f 51f
8:50 3.5ft 6s 5s 13 16 mph 1027.1mb 53f 51f
7:50 3.5ft 5s 5s 16 18 mph 1027.1mb 53f 52f
6:50 3.5ft 5s 5s 13 16 mph 1026.8mb 53f 52f
5:50 3.5ft 5s 5s 13 16 mph 1026.5mb 53f 51f
4:50 3.5ft 5s 5s 13 18 mph 1026.2mb 53f 52f
3:50 3.5ft 6s 5s 11 13 mph 1025.8mb 53f 52f
2:50 3.5ft 6s 5s 11 16 mph 1025.7mb 53f 51f
1:50 3.5ft 6s 5s 13 16 mph 1025.4mb 53f 51f
12:50 3.5ft 5s 5s 13 16 mph 1025.5mb 53f 52f
11:50 3.5ft 6s 5s 11 13 mph 1025.6mb 53f 53f
10:50 3.5ft 6s 5s 13 16 mph 1025.5mb 53f 52f
9:50 3.5ft 5s 5s 7 9 mph 1025.4mb 53f 53f
8:50 3.5ft 7s 5s 7 9 mph 1025.4mb 53f 53f
7:50 3.5ft 6s 5s 9
mph
1025.1mb 53f 53f
6:50 4ft 6s 5s 9
mph
1024.5mb 53f 53f
5:50 3.5ft 6s 5s 9 11 mph 1024.3mb 53f 53f
4:50 4.5ft 6s 5s 11 13 mph 1023.9mb 53f 53f
3:50 4ft 8s 5s 11 13 mph 1023.7mb 53f 53f
2:50 4.5ft 5s 5s 11
mph
1023.7mb 53f 53f
1:50 4.5ft 7s 5s 13 16 mph 1023.4mb 53f 53f
12:50 4.5ft 5s 5s 11 13 mph 1023.4mb 53f 53f
mar 07/22 11:50 4.5ft 7s 5s 13
mph
1023.4mb 53f 52f
10:50 4.5ft 5s 5s 11 16 mph 1023mb 52f 52f
9:50 4.5ft 6s 5s 11 16 mph 1023mb 52f 52f
8:50 4.5ft 6s 5s 11 16 mph 1022.7mb 52f 51f
7:50 4.5ft 6s 5s 13 16 mph 1022.4mb 52f 51f
6:50 4.5ft 8s 5s 9 11 mph 1022.4mb 52f 49f
5:50 4.5ft 6s 5s 16 20 mph 1022mb 52f 50f
4:50 4ft 8s 5s 13 18 mph 1021.3mb 53f 51f
3:50 4.5ft 7s 5s 13 16 mph 1020.7mb 53f 51f
2:50 4.5ft 7s 5s 13 16 mph 1020.1mb 53f 51f
1:50 4.5ft 7s 5s 11 13 mph 1019.9mb 53f 52f
12:50 5ft 7s 6s 11 13 mph 1019.7mb 53f 52f
11:50 5ft 7s 6s 11 16 mph 1019.4mb 53f 52f